createdAt,value
2018-10-17T00:00:59.436Z,59.50
2018-10-17T00:03:28.180Z,59.50
2018-10-17T00:05:56.915Z,59.60
2018-10-17T00:08:25.643Z,59.60
2018-10-17T00:10:54.391Z,59.70
2018-10-17T00:13:23.078Z,59.70
2018-10-17T00:15:51.920Z,59.80
2018-10-17T00:18:20.641Z,59.80
2018-10-17T00:20:49.350Z,59.80
2018-10-17T00:23:18.160Z,59.70
2018-10-17T00:25:46.864Z,59.70
2018-10-17T00:28:15.584Z,59.70
2018-10-17T00:30:44.296Z,59.70
2018-10-17T00:33:13.012Z,59.70
2018-10-17T00:35:41.724Z,59.70
2018-10-17T00:38:10.444Z,59.70
2018-10-17T00:40:39.152Z,59.70
2018-10-17T00:43:07.948Z,59.70
2018-10-17T00:45:36.660Z,59.70
2018-10-17T00:48:05.393Z,59.70
2018-10-17T00:50:34.103Z,59.70
2018-10-17T00:53:02.877Z,59.70
2018-10-17T00:55:31.561Z,59.80
2018-10-17T00:58:00.284Z,59.80
2018-10-17T01:00:28.992Z,59.80
2018-10-17T01:02:57.698Z,59.60
2018-10-17T01:05:26.415Z,59.40
2018-10-17T01:07:55.126Z,59.40
2018-10-17T01:10:23.828Z,59.40
2018-10-17T01:12:52.598Z,59.40
2018-10-17T01:15:21.312Z,59.40
2018-10-17T01:17:50.016Z,59.40
2018-10-17T01:20:18.737Z,59.40
2018-10-17T01:22:47.444Z,59.40
2018-10-17T01:25:16.168Z,59.40
2018-10-17T01:27:44.915Z,59.50
2018-10-17T01:30:13.623Z,59.50
2018-10-17T01:32:42.331Z,59.40
2018-10-17T01:35:11.070Z,59.50
2018-10-17T01:37:39.761Z,59.60
2018-10-17T01:40:08.680Z,59.60
2018-10-17T01:42:37.580Z,59.60
2018-10-17T01:45:07.148Z,59.60
2018-10-17T01:47:35.967Z,59.60
2018-10-17T01:50:05.584Z,59.60
2018-10-17T01:52:34.291Z,59.50
2018-10-17T01:55:03.171Z,59.50
2018-10-17T01:57:31.880Z,59.50
2018-10-17T02:00:00.598Z,59.40
2018-10-17T02:02:29.308Z,59.40
2018-10-17T02:04:58.074Z,59.40
2018-10-17T02:07:26.727Z,59.30
2018-10-17T02:09:55.808Z,59.30
2018-10-17T02:12:24.484Z,59.30
2018-10-17T02:14:53.215Z,59.30
2018-10-17T02:17:21.916Z,59.20
2018-10-17T02:19:50.620Z,59.30
2018-10-17T02:22:19.331Z,59.30
2018-10-17T02:24:48.040Z,59.40
2018-10-17T02:27:16.751Z,59.40
2018-10-17T02:29:45.472Z,59.50
2018-10-17T02:32:14.184Z,59.50
2018-10-17T02:34:48.216Z,59.50
2018-10-17T02:37:17.067Z,59.50
2018-10-17T02:39:45.780Z,59.40
2018-10-17T02:42:14.396Z,59.40
2018-10-17T02:44:43.104Z,59.30
2018-10-17T02:47:11.937Z,59.30
2018-10-17T02:49:40.508Z,59.40
2018-10-17T02:52:09.225Z,59.20
2018-10-17T02:54:37.931Z,59.40
2018-10-17T02:57:06.651Z,59.80
2018-10-17T02:59:35.356Z,59.20
2018-10-17T03:02:04.299Z,59.30
2018-10-17T03:04:33.188Z,59.40
2018-10-17T03:07:01.977Z,59.40
2018-10-17T03:09:30.608Z,59.40
2018-10-17T03:11:59.324Z,59.40
2018-10-17T03:14:28.062Z,59.40
2018-10-17T03:16:56.790Z,59.30
2018-10-17T03:19:25.501Z,59.30
2018-10-17T03:21:54.196Z,59.30
2018-10-17T03:24:22.912Z,59.20
2018-10-17T03:26:51.624Z,59.20
2018-10-17T03:29:20.473Z,59.20
2018-10-17T03:31:49.176Z,59.20
2018-10-17T03:34:17.985Z,59.20
2018-10-17T03:36:46.876Z,59.20
2018-10-17T03:39:15.600Z,59.80
2018-10-17T03:41:44.304Z,59.20
2018-10-17T03:44:13.018Z,59.20
2018-10-17T03:46:41.725Z,59.20
2018-10-17T03:49:10.495Z,59.20
2018-10-17T03:51:39.213Z,59.20
2018-10-17T03:54:07.959Z,59.30
2018-10-17T03:56:36.667Z,59.30
2018-10-17T03:59:05.596Z,59.30
2018-10-17T04:01:34.276Z,59.20
2018-10-17T04:04:03.023Z,59.10
2018-10-17T04:06:31.733Z,59.10
2018-10-17T04:09:00.492Z,59.00
2018-10-17T04:11:29.218Z,59.00
2018-10-17T04:13:57.965Z,58.90
2018-10-17T04:16:26.692Z,58.80
2018-10-17T04:18:55.441Z,58.80
2018-10-17T04:21:24.120Z,58.90
2018-10-17T04:23:52.839Z,58.60
2018-10-17T04:26:21.549Z,58.50
2018-10-17T04:28:50.269Z,58.50
2018-10-17T04:31:19.093Z,58.50
2018-10-17T04:33:47.688Z,58.60
2018-10-17T04:36:16.653Z,58.60
2018-10-17T04:38:45.295Z,58.50
2018-10-17T04:41:14.093Z,58.50
2018-10-17T04:43:42.724Z,58.60
2018-10-17T04:46:11.439Z,58.80
2018-10-17T04:48:40.152Z,59.20
2018-10-17T04:51:08.895Z,59.50
2018-10-17T04:53:37.604Z,57.20
2018-10-17T04:56:06.324Z,60.00
2018-10-17T04:58:35.045Z,63.40
2018-10-17T05:01:03.864Z,66.70
2018-10-17T05:03:32.504Z,72.50
2018-10-17T05:06:01.437Z,74.40
2018-10-17T05:08:30.144Z,77.90
2018-10-17T05:10:58.885Z,82.30
2018-10-17T05:13:27.820Z,86.90
2018-10-17T05:15:56.556Z,87.10
2018-10-17T05:18:25.259Z,89.30
2018-10-17T05:20:53.964Z,90.40
2018-10-17T05:23:22.673Z,91.10
2018-10-17T05:25:51.383Z,91.60
2018-10-17T05:28:20.088Z,92.10
2018-10-17T05:30:48.792Z,91.80
2018-10-17T05:33:17.504Z,92.40
2018-10-17T05:35:46.212Z,93.00
2018-10-17T05:38:14.932Z,92.00
2018-10-17T05:40:43.635Z,91.60
2018-10-17T05:43:12.514Z,92.90
2018-10-17T05:45:41.169Z,92.10
2018-10-17T05:48:09.880Z,93.20
2018-10-17T05:50:38.588Z,91.60
2018-10-17T05:53:07.395Z,92.90
2018-10-17T05:55:36.075Z,90.80
2018-10-17T05:58:05.100Z,91.90
2018-10-17T06:00:33.808Z,92.50
2018-10-17T06:03:02.524Z,93.50
2018-10-17T06:05:31.224Z,93.30
2018-10-17T06:07:59.965Z,92.40
2018-10-17T06:10:28.767Z,92.20
2018-10-17T06:12:57.424Z,93.40
2018-10-17T06:15:26.104Z,93.30
2018-10-17T06:18:01.657Z,94.20
2018-10-17T06:20:30.367Z,93.00
2018-10-17T06:26:18.307Z,94.00
2018-10-17T06:35:06.862Z,92.80
2018-10-17T06:37:49.395Z,92.30
2018-10-17T06:40:18.125Z,92.10
2018-10-17T06:42:46.860Z,93.40
2018-10-17T06:45:15.600Z,92.30
2018-10-17T06:47:45.680Z,92.80
2018-10-17T06:50:14.457Z,92.50
2018-10-17T06:52:43.200Z,92.50
2018-10-17T06:55:12.047Z,92.10
2018-10-17T06:57:40.704Z,92.50
2018-10-17T07:00:10.320Z,92.50
2018-10-17T07:02:39.052Z,91.70
2018-10-17T07:05:08.517Z,93.50
2018-10-17T07:07:37.722Z,92.60
2018-10-17T07:10:06.467Z,92.80
2018-10-17T07:12:35.201Z,92.20
2018-10-17T07:15:04.203Z,92.00
2018-10-17T07:17:32.889Z,93.00
2018-10-17T07:20:01.628Z,93.10
2018-10-17T07:22:30.392Z,93.10
2018-10-17T07:24:59.552Z,92.70
2018-10-17T07:27:28.429Z,93.20
2018-10-17T07:29:57.191Z,92.30
2018-10-17T07:32:26.109Z,92.70
2018-10-17T07:34:54.848Z,93.10
2018-10-17T07:37:23.588Z,92.00
2018-10-17T07:39:52.361Z,92.10
2018-10-17T07:42:21.105Z,90.80
2018-10-17T07:44:49.845Z,90.60
2018-10-17T07:47:18.580Z,91.00
2018-10-17T07:49:48.263Z,90.70
2018-10-17T07:52:16.989Z,90.00
2018-10-17T07:54:46.141Z,88.80
2018-10-17T07:57:25.472Z,86.30
2018-10-17T07:59:54.309Z,85.20
2018-10-17T08:02:22.916Z,82.60
2018-10-17T08:04:51.680Z,81.40
2018-10-17T08:07:20.503Z,83.60
2018-10-17T08:09:49.320Z,82.00
2018-10-17T08:12:18.139Z,83.20
2018-10-17T08:14:46.856Z,83.00
2018-10-17T08:17:15.604Z,79.40
2018-10-17T08:19:44.351Z,80.20
2018-10-17T08:22:13.099Z,81.20
2018-10-17T08:24:41.832Z,79.70
2018-10-17T08:27:10.623Z,78.10
2018-10-17T08:29:39.325Z,81.00
2018-10-17T08:32:08.709Z,78.70
2018-10-17T08:34:37.450Z,77.80
2018-10-17T08:37:06.526Z,78.70
2018-10-17T08:39:34.932Z,75.80
2018-10-17T08:42:03.832Z,75.80
2018-10-17T08:44:32.588Z,74.20
2018-10-17T08:47:01.332Z,75.10
2018-10-17T08:49:30.081Z,73.50
2018-10-17T08:51:58.816Z,73.90
2018-10-17T08:54:27.564Z,72.20
2018-10-17T08:56:56.301Z,70.80
2018-10-17T08:59:25.049Z,70.20
2018-10-17T09:01:53.885Z,71.30
2018-10-17T09:04:22.561Z,71.10
2018-10-17T09:06:51.301Z,68.50
2018-10-17T09:09:20.033Z,65.70
2018-10-17T09:11:48.761Z,63.70
2018-10-17T09:14:17.818Z,62.60
2018-10-17T09:16:46.591Z,61.80
2018-10-17T09:19:15.350Z,60.40
2018-10-17T09:21:44.391Z,60.70
2018-10-17T09:24:12.827Z,60.10
2018-10-17T09:26:41.516Z,59.90
2018-10-17T09:29:10.248Z,59.70
2018-10-17T09:31:38.985Z,59.30
2018-10-17T09:34:08.442Z,58.80
2018-10-17T09:36:38.269Z,58.40
2018-10-17T09:39:09.798Z,58.20
2018-10-17T09:41:38.675Z,58.10
2018-10-17T09:44:07.453Z,57.80
2018-10-17T09:46:36.196Z,58.00
2018-10-17T09:49:04.994Z,57.70
2018-10-17T09:51:33.944Z,57.90
2018-10-17T09:54:02.781Z,58.30
2018-10-17T09:56:31.463Z,58.20
2018-10-17T09:59:00.193Z,58.30
2018-10-17T10:01:33.844Z,58.30
2018-10-17T10:04:02.608Z,58.30
2018-10-17T10:06:31.320Z,58.30
2018-10-17T10:09:00.051Z,58.20
2018-10-17T10:11:28.802Z,58.00
2018-10-17T10:13:57.543Z,58.20
2018-10-17T10:16:26.351Z,58.10
2018-10-17T10:18:55.084Z,57.90
2018-10-17T10:21:23.825Z,57.80
2018-10-17T10:23:52.579Z,57.80
2018-10-17T10:26:21.304Z,58.00
2018-10-17T10:28:50.036Z,58.00
2018-10-17T10:31:18.808Z,57.70
2018-10-17T10:33:47.548Z,57.30
2018-10-17T10:36:16.372Z,57.40
2018-10-17T10:38:45.032Z,57.40
2018-10-17T10:41:13.767Z,57.50
2018-10-17T10:43:42.517Z,57.50
2018-10-17T10:46:11.270Z,57.10
2018-10-17T10:48:39.996Z,56.80
2018-10-17T10:51:09.444Z,56.80
2018-10-17T10:53:38.264Z,56.80
2018-10-17T10:56:07.073Z,57.20
2018-10-17T10:58:35.880Z,57.30
2018-10-17T11:01:04.520Z,56.70
2018-10-17T11:03:33.272Z,55.80
2018-10-17T11:06:02.005Z,55.60
2018-10-17T11:08:30.889Z,55.00
2018-10-17T11:10:59.702Z,56.00
2018-10-17T11:13:28.408Z,56.20
2018-10-17T11:15:57.151Z,55.50
2018-10-17T11:18:25.892Z,55.50
2018-10-17T11:20:54.637Z,55.50
2018-10-17T11:23:23.365Z,54.90
2018-10-17T11:25:52.129Z,54.60
2018-10-17T11:28:20.878Z,54.10
2018-10-17T11:30:49.834Z,54.20
2018-10-17T11:33:18.692Z,54.50
2018-10-17T11:35:47.331Z,54.70
2018-10-17T11:38:16.069Z,54.50
2018-10-17T11:40:44.986Z,54.80
2018-10-17T11:43:13.549Z,55.10
2018-10-17T11:45:42.287Z,55.30
2018-10-17T11:48:11.029Z,55.70
2018-10-17T11:50:39.827Z,55.70
2018-10-17T11:53:08.565Z,55.50
2018-10-17T11:55:37.281Z,54.50
2018-10-17T11:58:06.072Z,54.70
2018-10-17T12:00:34.821Z,53.70
2018-10-17T12:03:03.623Z,53.60
2018-10-17T12:05:32.563Z,54.00
2018-10-17T12:08:01.056Z,54.10
2018-10-17T12:10:29.804Z,55.00
2018-10-17T12:12:58.543Z,54.80
2018-10-17T12:15:27.300Z,54.60
2018-10-17T12:17:56.112Z,55.00
2018-10-17T12:20:24.772Z,54.50
2018-10-17T12:22:53.508Z,53.80
2018-10-17T12:25:22.257Z,54.00
2018-10-17T12:27:51.067Z,54.80
2018-10-17T12:30:19.875Z,54.90
2018-10-17T12:32:48.602Z,55.50
2018-10-17T12:35:17.426Z,55.60
2018-10-17T12:37:46.072Z,55.40
2018-10-17T12:40:14.935Z,55.50
2018-10-17T12:42:43.556Z,55.70
2018-10-17T12:45:12.324Z,54.50
2018-10-17T12:47:41.032Z,55.50
2018-10-17T12:50:10.063Z,55.40
2018-10-17T12:52:38.849Z,55.30
2018-10-17T12:55:08.089Z,55.00
2018-10-17T12:57:36.825Z,55.00
2018-10-17T13:00:07.156Z,55.60
2018-10-17T13:02:36.197Z,55.70
2018-10-17T13:05:05.614Z,54.50
2018-10-17T13:07:34.304Z,55.10
2018-10-17T13:10:03.209Z,55.10
2018-10-17T13:12:31.988Z,55.20
2018-10-17T13:15:00.810Z,54.60
2018-10-17T13:17:29.544Z,55.00
2018-10-17T13:20:04.228Z,54.10
2018-10-17T13:22:32.977Z,54.70
2018-10-17T13:25:01.776Z,54.50
2018-10-17T13:27:33.492Z,53.30
2018-10-17T13:30:02.633Z,53.90
2018-10-17T13:32:31.390Z,53.50
2018-10-17T13:35:00.204Z,53.20
2018-10-17T13:37:28.892Z,52.70
2018-10-17T13:39:57.644Z,53.70
2018-10-17T13:42:26.389Z,53.10
2018-10-17T13:44:55.133Z,53.70
2018-10-17T13:47:23.867Z,54.10
2018-10-17T13:49:52.608Z,54.40
2018-10-17T13:52:21.344Z,54.90
2018-10-17T13:54:50.153Z,54.60
2018-10-17T13:57:18.817Z,55.10
2018-10-17T13:59:47.656Z,55.40
2018-10-17T14:02:16.344Z,54.70
2018-10-17T14:04:45.094Z,55.20
2018-10-17T14:07:13.912Z,55.70
2018-10-17T14:09:42.603Z,55.60
2018-10-17T14:12:11.499Z,55.40
2018-10-17T14:14:40.171Z,55.80
2018-10-17T14:17:08.909Z,55.90
2018-10-17T14:19:38.585Z,55.20
2018-10-17T14:22:08.116Z,55.30
2018-10-17T14:24:36.880Z,55.40
2018-10-17T14:27:06.187Z,55.10
2018-10-17T14:29:34.938Z,55.30
2018-10-17T14:32:03.705Z,54.80
2018-10-17T14:34:32.438Z,55.20
2018-10-17T14:37:01.181Z,54.70
2018-10-17T14:39:30.146Z,55.20
2018-10-17T14:41:58.797Z,55.60
2018-10-17T14:44:27.625Z,55.60
2018-10-17T14:46:56.364Z,56.00
2018-10-17T14:49:25.135Z,56.40
2018-10-17T14:51:53.861Z,55.40
2018-10-17T14:54:22.605Z,55.70
2018-10-17T14:56:51.430Z,55.60
2018-10-17T14:59:20.332Z,56.10
2018-10-17T15:01:49.068Z,56.00
2018-10-17T15:04:17.825Z,55.80
2018-10-17T15:06:46.566Z,56.10
2018-10-17T15:09:15.375Z,56.10
2018-10-17T15:11:44.182Z,56.30
2018-10-17T15:14:12.784Z,56.40
2018-10-17T15:16:41.609Z,56.40
2018-10-17T15:19:10.325Z,56.80
2018-10-17T15:21:39.087Z,57.00
2018-10-17T15:24:07.941Z,57.10
2018-10-17T15:26:36.569Z,57.50
2018-10-17T15:29:05.322Z,57.30
2018-10-17T15:31:34.099Z,57.70
2018-10-17T15:34:02.809Z,58.10
2018-10-17T15:36:31.548Z,58.40
2018-10-17T15:39:00.302Z,58.50
2018-10-17T15:41:29.039Z,58.80
2018-10-17T15:43:57.772Z,59.30
2018-10-17T15:46:26.517Z,59.80
2018-10-17T15:48:55.989Z,60.40
2018-10-17T15:51:24.801Z,60.50
2018-10-17T15:53:53.574Z,60.40
2018-10-17T15:56:22.277Z,60.60
2018-10-17T15:58:51.021Z,60.90
2018-10-17T16:01:19.769Z,61.10
2018-10-17T16:03:48.508Z,61.80
2018-10-17T16:06:17.305Z,62.20
2018-10-17T16:08:45.996Z,62.50
2018-10-17T16:11:14.744Z,62.60
2018-10-17T16:13:43.484Z,63.00
2018-10-17T16:16:12.220Z,63.80
2018-10-17T16:18:40.955Z,64.20
2018-10-17T16:21:09.694Z,64.30
2018-10-17T16:23:38.437Z,64.40
2018-10-17T16:26:07.234Z,65.00
2018-10-17T16:28:35.949Z,66.20
2018-10-17T16:31:04.945Z,66.50
2018-10-17T16:33:33.679Z,66.20
2018-10-17T16:36:02.471Z,66.30
2018-10-17T16:38:31.152Z,66.80
2018-10-17T16:40:59.967Z,67.50
2018-10-17T16:43:28.628Z,67.50
2018-10-17T16:45:57.356Z,67.70
2018-10-17T16:48:26.112Z,68.90
2018-10-17T16:50:54.927Z,69.70
2018-10-17T16:53:23.601Z,70.60
2018-10-17T16:55:52.343Z,70.70
2018-10-17T16:58:21.097Z,70.60
2018-10-17T17:00:50.456Z,69.70
2018-10-17T17:03:19.200Z,70.40
2018-10-17T17:05:47.937Z,68.20
2018-10-17T17:08:16.687Z,65.80
2018-10-17T17:10:45.425Z,64.20
2018-10-17T17:13:14.161Z,63.10
2018-10-17T17:15:42.905Z,62.50
2018-10-17T17:18:11.671Z,62.00
2018-10-17T17:20:40.412Z,61.70
2018-10-17T17:23:09.152Z,61.30
2018-10-17T17:25:37.898Z,61.10
2018-10-17T17:28:06.677Z,60.90
2018-10-17T17:30:35.425Z,60.70
2018-10-17T17:33:04.433Z,60.60
2018-10-17T17:35:33.145Z,60.40
2018-10-17T17:38:01.875Z,60.30
2018-10-17T17:40:30.615Z,60.10
2018-10-17T17:42:59.352Z,60.10
2018-10-17T17:45:28.124Z,60.80
2018-10-17T17:47:56.860Z,60.00
2018-10-17T17:50:25.609Z,60.00
2018-10-17T17:52:54.351Z,60.00
2018-10-17T17:55:23.104Z,59.90
2018-10-17T17:57:51.858Z,59.90
2018-10-17T18:00:20.622Z,60.40
2018-10-17T18:02:49.357Z,59.80
2018-10-17T18:05:18.102Z,59.80
2018-10-17T18:07:46.833Z,59.80
2018-10-17T18:10:15.635Z,59.80
2018-10-17T18:12:44.407Z,59.80
2018-10-17T18:15:13.254Z,59.80
2018-10-17T18:17:42.008Z,59.70
2018-10-17T18:20:10.757Z,59.80
2018-10-17T18:22:39.512Z,59.90
2018-10-17T18:25:08.265Z,59.90
2018-10-17T18:27:37.507Z,60.00
2018-10-17T18:30:06.541Z,60.00
2018-10-17T18:32:35.304Z,59.90
2018-10-17T18:35:04.432Z,59.90
2018-10-17T18:37:33.181Z,59.80
2018-10-17T18:40:02.573Z,59.90
2018-10-17T18:42:31.271Z,59.90
2018-10-17T18:45:00.000Z,60.00
2018-10-17T18:47:29.096Z,59.90
2018-10-17T18:49:57.843Z,59.90
2018-10-17T18:52:26.630Z,59.90
2018-10-17T18:54:55.419Z,59.90
2018-10-17T18:57:24.176Z,59.90
2018-10-17T18:59:52.900Z,59.90
2018-10-17T19:02:21.668Z,59.90
2018-10-17T19:04:50.405Z,60.00
2018-10-17T19:07:19.206Z,59.90
2018-10-17T19:09:47.933Z,60.00
2018-10-17T19:12:16.697Z,60.00
2018-10-17T19:14:45.440Z,60.00
2018-10-17T19:17:14.348Z,60.00
2018-10-17T19:19:43.092Z,60.00
2018-10-17T19:22:12.536Z,60.00
2018-10-17T19:24:41.326Z,60.00
2018-10-17T19:27:10.098Z,60.00
2018-10-17T19:29:38.768Z,60.00
2018-10-17T19:32:07.504Z,60.00
2018-10-17T19:34:36.255Z,60.00
2018-10-17T19:37:05.528Z,60.00
2018-10-17T19:39:34.279Z,60.00
2018-10-17T19:42:03.107Z,60.00
2018-10-17T19:44:31.763Z,60.20
2018-10-17T19:47:00.500Z,60.20
2018-10-17T19:49:29.241Z,60.20
2018-10-17T19:51:57.979Z,60.20
2018-10-17T19:54:26.714Z,60.20
2018-10-17T19:56:55.497Z,60.30
2018-10-17T19:59:24.220Z,60.20
2018-10-17T20:01:52.964Z,60.20
2018-10-17T20:04:21.705Z,60.30
2018-10-17T20:06:50.441Z,60.20
2018-10-17T20:09:19.184Z,60.20
2018-10-17T20:11:47.924Z,60.20
2018-10-17T20:14:16.744Z,60.20
2018-10-17T20:16:45.410Z,60.20
2018-10-17T20:19:14.168Z,60.20
2018-10-17T20:21:42.923Z,60.20
2018-10-17T20:24:11.657Z,60.20
2018-10-17T20:26:40.396Z,60.30
2018-10-17T20:29:09.207Z,60.30
2018-10-17T20:31:38.388Z,60.30
2018-10-17T20:34:07.556Z,60.30
2018-10-17T20:36:36.300Z,60.30
2018-10-17T20:39:08.796Z,60.40
2018-10-17T20:41:37.543Z,60.40
2018-10-17T20:44:06.475Z,60.40
2018-10-17T20:46:35.124Z,60.50
2018-10-17T20:49:04.033Z,60.70
2018-10-17T20:51:32.795Z,60.70
2018-10-17T20:54:01.541Z,60.70
2018-10-17T20:56:30.293Z,60.70
2018-10-17T20:58:59.054Z,60.60
2018-10-17T21:01:28.267Z,60.60
2018-10-17T21:03:57.031Z,60.60
2018-10-17T21:06:25.755Z,60.70
2018-10-17T21:08:54.488Z,60.60
2018-10-17T21:11:23.253Z,60.70
2018-10-17T21:13:51.978Z,60.70
2018-10-17T21:16:20.717Z,60.70
2018-10-17T21:18:49.514Z,60.70
2018-10-17T21:21:18.495Z,61.40
2018-10-17T21:23:47.233Z,60.70
2018-10-17T21:26:16.089Z,60.60
2018-10-17T21:28:44.710Z,60.60
2018-10-17T21:31:13.463Z,60.90
2018-10-17T21:33:42.198Z,60.60
2018-10-17T21:36:10.933Z,60.60
2018-10-17T21:38:39.672Z,60.50
2018-10-17T21:41:08.548Z,60.60
2018-10-17T21:43:37.299Z,60.50
2018-10-17T21:46:06.040Z,60.40
2018-10-17T21:48:34.802Z,60.60
2018-10-17T21:51:03.588Z,60.60
2018-10-17T21:53:32.355Z,61.50
2018-10-17T21:56:01.100Z,60.70
2018-10-17T21:58:29.904Z,60.80
2018-10-17T22:00:58.646Z,60.90
2018-10-17T22:03:27.696Z,61.80
2018-10-17T22:05:56.433Z,61.10
2018-10-17T22:08:25.168Z,61.20
2018-10-17T22:10:53.896Z,61.20
2018-10-17T22:13:22.653Z,61.20
2018-10-17T22:15:51.388Z,61.30
2018-10-17T22:18:20.128Z,61.30
2018-10-17T22:20:48.888Z,61.40
2018-10-17T22:23:17.637Z,61.40
2018-10-17T22:25:46.373Z,61.40
2018-10-17T22:28:15.124Z,61.30
2018-10-17T22:30:43.861Z,61.30
2018-10-17T22:33:12.601Z,61.30
2018-10-17T22:35:41.357Z,61.30
2018-10-17T22:38:10.132Z,61.30
2018-10-17T22:40:38.861Z,61.30
2018-10-17T22:43:07.620Z,61.50
2018-10-17T22:45:36.333Z,61.50
2018-10-17T22:48:05.216Z,61.60
2018-10-17T22:50:33.963Z,61.60
2018-10-17T22:53:02.805Z,61.60
2018-10-17T22:55:31.549Z,61.60
2018-10-17T22:58:00.280Z,61.60
2018-10-17T23:00:29.020Z,61.60
2018-10-17T23:02:57.763Z,61.70
2018-10-17T23:05:26.501Z,61.70
2018-10-17T23:07:55.270Z,61.70
2018-10-17T23:10:23.992Z,61.80
2018-10-17T23:12:52.725Z,61.80
2018-10-17T23:15:21.491Z,61.90
2018-10-17T23:17:50.228Z,61.90
2018-10-17T23:20:18.967Z,61.90
2018-10-17T23:22:47.710Z,61.90
2018-10-17T23:25:16.448Z,61.90
2018-10-17T23:27:45.192Z,61.90
2018-10-17T23:30:13.936Z,61.90
2018-10-17T23:32:42.688Z,61.90
2018-10-17T23:35:11.440Z,61.90
2018-10-17T23:37:40.171Z,61.90
2018-10-17T23:40:09.432Z,61.90
2018-10-17T23:42:38.375Z,61.80
2018-10-17T23:45:07.313Z,61.80
2018-10-17T23:47:36.208Z,61.70
2018-10-17T23:50:04.996Z,61.70
2018-10-17T23:52:33.681Z,61.20
2018-10-17T23:55:02.461Z,61.80
2018-10-17T23:57:31.197Z,61.80
2018-10-17T23:59:59.948Z,61.90
